createdAt,value
2023-10-19T00:01:31.708Z,16.34
2023-10-19T00:04:01.422Z,16.20
2023-10-19T00:06:29.554Z,15.97
2023-10-19T00:08:58.216Z,15.65
2023-10-19T00:11:29.688Z,15.47
2023-10-19T00:14:00.467Z,15.96
2023-10-19T00:16:32.017Z,15.67
2023-10-19T00:19:03.415Z,15.54
2023-10-19T00:21:32.547Z,15.83
2023-10-19T00:24:07.440Z,16.04
2023-10-19T00:26:35.824Z,16.55
2023-10-19T00:29:20.844Z,16.43
2023-10-19T00:31:50.742Z,16.33
2023-10-19T00:34:20.290Z,15.59
2023-10-19T00:36:50.864Z,15.21
2023-10-19T00:39:23.791Z,15.37
2023-10-19T00:41:52.980Z,15.31
2023-10-19T00:44:25.575Z,15.09
2023-10-19T00:47:06.684Z,14.79
2023-10-19T00:49:35.483Z,15.17
2023-10-19T00:52:14.110Z,15.06
2023-10-19T00:54:53.883Z,15.17
2023-10-19T00:57:22.667Z,15.01
2023-10-19T01:00:03.281Z,15.24
2023-10-19T01:02:31.930Z,15.07
2023-10-19T01:05:07.466Z,15.09
2023-10-19T01:07:40.383Z,14.94
2023-10-19T01:10:14.702Z,14.77
2023-10-19T01:12:43.463Z,14.54
2023-10-19T01:15:32.178Z,14.56
2023-10-19T01:18:03.965Z,14.54
2023-10-19T01:20:34.187Z,14.59
2023-10-19T01:23:11.700Z,14.32
2023-10-19T01:26:00.642Z,14.42
2023-10-19T01:28:45.367Z,14.52
2023-10-19T01:31:30.399Z,14.42
2023-10-19T01:34:08.965Z,14.52
2023-10-19T01:36:56.734Z,14.48
2023-10-19T01:39:25.349Z,14.22
2023-10-19T01:41:53.508Z,14.09
2023-10-19T01:44:23.744Z,13.79
2023-10-19T01:46:52.455Z,13.56
2023-10-19T01:49:30.423Z,13.76
2023-10-19T01:51:58.872Z,13.42
2023-10-19T01:54:27.525Z,13.64
2023-10-19T01:56:59.652Z,13.72
2023-10-19T01:59:30.375Z,13.61
2023-10-19T02:01:59.921Z,13.57
2023-10-19T02:04:28.908Z,13.52
2023-10-19T02:06:57.521Z,13.45
2023-10-19T02:09:29.099Z,13.35
2023-10-19T02:11:59.977Z,13.23
2023-10-19T02:14:33.730Z,13.13
2023-10-19T02:17:06.362Z,12.99
2023-10-19T02:19:35.089Z,12.90
2023-10-19T02:22:14.528Z,12.80
2023-10-19T02:24:43.163Z,12.93
2023-10-19T02:27:19.471Z,12.86
2023-10-19T02:29:53.051Z,12.67
2023-10-19T02:32:21.596Z,12.58
2023-10-19T02:34:50.803Z,12.50
2023-10-19T02:37:19.459Z,12.41
2023-10-19T02:39:47.432Z,12.22
2023-10-19T02:42:15.594Z,11.94
2023-10-19T02:44:44.196Z,11.79
2023-10-19T02:47:13.528Z,11.70
2023-10-19T02:49:42.273Z,11.39
2023-10-19T02:52:13.012Z,11.40
2023-10-19T02:54:42.258Z,11.30
2023-10-19T02:57:14.536Z,11.09
2023-10-19T02:59:43.252Z,10.89
2023-10-19T03:02:15.782Z,10.79
2023-10-19T03:04:45.332Z,10.33
2023-10-19T03:07:18.184Z,10.33
2023-10-19T03:09:56.112Z,10.02
2023-10-19T03:12:29.195Z,10.02
2023-10-19T03:14:57.613Z,9.83
2023-10-19T03:17:27.642Z,9.56
2023-10-19T03:19:56.712Z,9.53
2023-10-19T03:22:25.861Z,9.49
2023-10-19T03:25:14.698Z,9.34
2023-10-19T03:27:46.860Z,9.32
2023-10-19T03:30:20.389Z,9.18
2023-10-19T03:32:49.984Z,8.97
2023-10-19T03:35:18.258Z,9.02
2023-10-19T03:37:49.850Z,9.05
2023-10-19T03:40:27.686Z,8.92
2023-10-19T03:42:56.976Z,8.73
2023-10-19T03:45:26.938Z,8.85
2023-10-19T03:47:57.879Z,9.04
2023-10-19T03:50:27.879Z,8.93
2023-10-19T03:52:56.107Z,8.94
2023-10-19T03:55:25.595Z,9.10
2023-10-19T03:57:56.831Z,9.04
2023-10-19T04:00:30.556Z,9.07
2023-10-19T04:03:00.980Z,8.86
2023-10-19T04:05:30.721Z,9.03
2023-10-19T04:08:00.474Z,9.00
2023-10-19T04:10:38.105Z,8.92
2023-10-19T04:13:07.187Z,8.68
2023-10-19T04:15:36.346Z,8.61
2023-10-19T04:18:12.623Z,8.52
2023-10-19T04:20:56.911Z,8.19
2023-10-19T04:23:37.148Z,8.24
2023-10-19T04:26:08.976Z,8.20
2023-10-19T04:28:44.080Z,8.09
2023-10-19T04:31:15.824Z,7.97
2023-10-19T04:33:48.148Z,7.92
2023-10-19T04:36:17.403Z,7.76
2023-10-19T04:38:46.331Z,7.72
2023-10-19T04:41:15.007Z,7.64
2023-10-19T04:43:45.776Z,7.61
2023-10-19T04:46:14.896Z,7.36
2023-10-19T04:48:44.714Z,7.39
2023-10-19T04:51:14.222Z,7.33
2023-10-19T04:53:42.936Z,7.12
2023-10-19T04:56:11.519Z,7.04
2023-10-19T04:58:40.133Z,7.23
2023-10-19T05:01:08.838Z,7.13
2023-10-19T05:03:37.644Z,7.10
2023-10-19T05:06:06.799Z,7.05
2023-10-19T05:08:35.412Z,6.87
2023-10-19T05:11:03.970Z,6.91
2023-10-19T05:13:35.281Z,6.92
2023-10-19T05:16:04.538Z,6.87
2023-10-19T05:18:33.201Z,6.78
2023-10-19T05:21:03.171Z,6.60
2023-10-19T05:23:32.330Z,6.66
2023-10-19T05:26:07.092Z,6.65
2023-10-19T05:28:35.353Z,6.51
2023-10-19T05:31:03.948Z,6.56
2023-10-19T05:33:41.935Z,6.61
2023-10-19T05:36:10.794Z,6.59
2023-10-19T05:38:39.551Z,6.52
2023-10-19T05:41:08.280Z,6.27
2023-10-19T05:43:38.101Z,6.36
2023-10-19T05:46:07.208Z,6.29
2023-10-19T05:48:35.979Z,6.30
2023-10-19T05:51:05.420Z,6.01
2023-10-19T05:53:33.624Z,6.20
2023-10-19T05:56:02.325Z,6.12
2023-10-19T05:58:30.922Z,6.17
2023-10-19T06:01:01.988Z,6.29
2023-10-19T06:03:30.802Z,6.43
2023-10-19T06:05:59.483Z,6.22
2023-10-19T06:08:28.376Z,6.36
2023-10-19T06:10:57.221Z,6.13
2023-10-19T06:13:26.031Z,6.25
2023-10-19T06:15:54.703Z,6.33
2023-10-19T06:18:23.528Z,6.24
2023-10-19T06:20:53.902Z,6.07
2023-10-19T06:23:22.569Z,5.92
2023-10-19T06:25:53.306Z,5.78
2023-10-19T06:28:22.017Z,5.70
2023-10-19T06:30:50.746Z,5.70
2023-10-19T06:33:19.605Z,5.63
2023-10-19T06:35:49.336Z,5.68
2023-10-19T06:38:19.353Z,5.75
2023-10-19T06:40:48.753Z,5.63
2023-10-19T06:43:16.998Z,5.73
2023-10-19T06:45:47.704Z,5.64
2023-10-19T06:48:17.377Z,5.52
2023-10-19T06:50:51.480Z,5.60
2023-10-19T06:53:21.178Z,5.60
2023-10-19T06:55:50.469Z,5.41
2023-10-19T06:58:22.142Z,5.60
2023-10-19T07:00:58.997Z,5.62
2023-10-19T07:03:27.730Z,5.45
2023-10-19T07:05:56.455Z,5.63
2023-10-19T07:08:25.273Z,5.59
2023-10-19T07:10:53.777Z,5.61
2023-10-19T07:13:23.082Z,5.39
2023-10-19T07:15:51.845Z,5.53
2023-10-19T07:18:20.515Z,5.40
2023-10-19T07:20:51.225Z,5.45
2023-10-19T07:23:23.915Z,5.48
2023-10-19T07:26:02.085Z,5.32
2023-10-19T07:28:30.884Z,5.40
2023-10-19T07:30:59.384Z,5.40
2023-10-19T07:33:29.058Z,5.43
2023-10-19T07:35:57.731Z,5.43
2023-10-19T07:38:27.695Z,5.59
2023-10-19T07:40:56.457Z,5.59
2023-10-19T07:43:25.183Z,5.70
2023-10-19T07:45:54.524Z,6.05
2023-10-19T07:48:23.311Z,6.20
2023-10-19T07:50:52.192Z,6.38
2023-10-19T07:53:21.128Z,6.42
2023-10-19T07:55:49.813Z,6.62
2023-10-19T07:58:18.468Z,6.74
2023-10-19T08:00:49.457Z,6.78
2023-10-19T08:03:18.957Z,6.90
2023-10-19T08:05:47.568Z,6.79
2023-10-19T08:08:16.201Z,6.98
2023-10-19T08:10:44.857Z,7.01
2023-10-19T08:13:14.825Z,7.16
2023-10-19T08:15:44.664Z,7.00
2023-10-19T08:18:15.025Z,7.13
2023-10-19T08:20:44.382Z,7.04
2023-10-19T08:23:13.156Z,7.16
2023-10-19T08:25:55.326Z,7.21
2023-10-19T08:28:25.645Z,7.29
2023-10-19T08:31:02.645Z,7.32
2023-10-19T08:33:32.457Z,7.43
2023-10-19T08:36:02.531Z,7.43
2023-10-19T08:38:30.778Z,7.44
2023-10-19T08:41:00.354Z,7.23
2023-10-19T08:43:30.733Z,7.27
2023-10-19T08:46:00.233Z,7.21
2023-10-19T08:48:28.256Z,7.18
2023-10-19T08:50:58.007Z,7.11
2023-10-19T08:53:27.161Z,7.11
2023-10-19T08:55:58.244Z,7.01
2023-10-19T08:58:26.869Z,6.83
2023-10-19T09:00:58.777Z,6.94
2023-10-19T09:03:28.434Z,6.93
2023-10-19T09:05:58.578Z,6.85
2023-10-19T09:08:28.195Z,6.56
2023-10-19T09:10:59.448Z,6.58
2023-10-19T09:13:28.272Z,6.45
2023-10-19T09:15:58.017Z,6.45
2023-10-19T09:18:32.967Z,6.42
2023-10-19T09:21:13.531Z,6.27
2023-10-19T09:23:42.292Z,6.42
2023-10-19T09:26:11.049Z,6.57
2023-10-19T09:28:40.371Z,6.59
2023-10-19T09:31:12.043Z,6.53
2023-10-19T09:33:43.956Z,6.55
2023-10-19T09:36:17.223Z,6.53
2023-10-19T09:38:50.995Z,6.48
2023-10-19T09:41:21.942Z,6.47
2023-10-19T09:43:52.647Z,6.42
2023-10-19T09:46:28.999Z,6.34
2023-10-19T09:48:58.922Z,6.07
2023-10-19T09:51:27.970Z,6.27
2023-10-19T09:54:08.366Z,6.26
2023-10-19T09:56:48.035Z,6.17
2023-10-19T09:59:29.268Z,6.19
2023-10-19T10:02:20.390Z,6.15
2023-10-19T10:04:50.191Z,6.23
2023-10-19T10:07:32.259Z,6.24
2023-10-19T10:10:07.394Z,6.15
2023-10-19T10:12:37.299Z,6.17
2023-10-19T10:15:12.180Z,6.28
2023-10-19T10:17:41.834Z,6.38
2023-10-19T10:20:17.026Z,6.29
2023-10-19T10:22:47.292Z,6.23
2023-10-19T10:25:33.191Z,6.17
2023-10-19T10:28:02.121Z,6.14
2023-10-19T10:30:30.946Z,6.18
2023-10-19T10:33:01.876Z,6.09
2023-10-19T10:35:43.077Z,6.13
2023-10-19T10:38:17.422Z,6.21
2023-10-19T10:40:46.438Z,6.15
2023-10-19T10:43:14.997Z,6.15
2023-10-19T10:45:43.393Z,6.08
2023-10-19T10:48:19.474Z,6.05
2023-10-19T10:50:48.335Z,5.96
2023-10-19T10:53:21.096Z,5.95
2023-10-19T10:55:49.643Z,5.89
2023-10-19T10:58:21.040Z,5.84
2023-10-19T11:00:53.563Z,6.03
2023-10-19T11:03:25.489Z,5.93
2023-10-19T11:05:54.396Z,6.19
2023-10-19T11:08:27.117Z,6.33
2023-10-19T11:10:56.755Z,6.18
2023-10-19T11:13:32.331Z,6.45
2023-10-19T11:16:01.427Z,6.60
2023-10-19T11:18:38.135Z,6.68
2023-10-19T11:21:12.068Z,6.73
2023-10-19T11:23:47.035Z,6.66
2023-10-19T11:26:19.723Z,6.83
2023-10-19T11:28:54.016Z,6.95
2023-10-19T11:31:27.021Z,7.04
2023-10-19T11:34:00.678Z,6.87
2023-10-19T11:36:29.004Z,7.08
2023-10-19T11:38:57.887Z,6.93
2023-10-19T11:41:26.626Z,6.94
2023-10-19T11:43:57.644Z,6.77
2023-10-19T11:46:27.882Z,6.82
2023-10-19T11:48:57.448Z,6.78
2023-10-19T11:51:26.911Z,6.71
2023-10-19T11:53:55.563Z,6.67
2023-10-19T11:56:24.230Z,6.51
2023-10-19T11:58:52.894Z,6.41
2023-10-19T12:01:21.603Z,6.29
2023-10-19T12:03:50.786Z,6.23
2023-10-19T12:06:22.646Z,6.13
2023-10-19T12:08:51.318Z,6.10
2023-10-19T12:11:21.515Z,5.94
2023-10-19T12:13:50.192Z,5.92
2023-10-19T12:16:19.106Z,6.05
2023-10-19T12:18:48.796Z,5.84
2023-10-19T12:21:17.599Z,6.13
2023-10-19T12:23:47.263Z,6.07
2023-10-19T12:26:16.116Z,6.21
2023-10-19T12:28:47.129Z,6.21
2023-10-19T12:31:17.559Z,6.27
2023-10-19T12:33:47.315Z,6.16
2023-10-19T12:36:31.007Z,6.09
2023-10-19T12:39:00.061Z,6.14
2023-10-19T12:41:31.502Z,6.10
2023-10-19T12:44:01.339Z,6.07
2023-10-19T12:46:32.879Z,6.01
2023-10-19T12:49:01.694Z,6.08
2023-10-19T12:51:30.179Z,6.03
2023-10-19T12:53:58.864Z,5.91
2023-10-19T12:56:30.840Z,5.86
2023-10-19T12:58:59.606Z,5.83
2023-10-19T13:01:30.590Z,5.91
2023-10-19T13:03:59.214Z,5.75
2023-10-19T13:06:31.728Z,5.67
2023-10-19T13:09:00.408Z,5.60
2023-10-19T13:11:29.841Z,5.50
2023-10-19T13:13:58.521Z,5.50
2023-10-19T13:16:27.595Z,5.35
2023-10-19T13:18:56.621Z,5.45
2023-10-19T13:21:30.202Z,5.61
2023-10-19T13:24:01.434Z,5.71
2023-10-19T13:26:31.506Z,5.60
2023-10-19T13:29:00.458Z,5.56
2023-10-19T13:31:29.401Z,5.67
2023-10-19T13:33:59.562Z,5.68
2023-10-19T13:36:28.436Z,5.58
2023-10-19T13:38:57.282Z,5.12
2023-10-19T13:41:25.922Z,4.99
2023-10-19T13:43:54.664Z,5.02
2023-10-19T13:46:26.147Z,4.76
2023-10-19T13:48:54.699Z,4.36
2023-10-19T13:51:22.716Z,4.36
2023-10-19T13:53:52.587Z,4.40
2023-10-19T13:56:21.246Z,4.38
2023-10-19T13:58:50.435Z,4.08
2023-10-19T14:01:19.868Z,4.04
2023-10-19T14:03:49.648Z,4.09
2023-10-19T14:06:19.298Z,3.98
2023-10-19T14:08:47.728Z,4.06
2023-10-19T14:11:16.941Z,4.06
2023-10-19T14:13:46.024Z,3.91
2023-10-19T14:16:14.823Z,3.89
2023-10-19T14:18:46.130Z,3.66
2023-10-19T14:21:22.528Z,3.79
2023-10-19T14:23:51.144Z,3.75
2023-10-19T14:26:20.063Z,3.61
2023-10-19T14:28:48.705Z,3.85
2023-10-19T14:31:19.323Z,3.93
2023-10-19T14:33:48.124Z,3.92
2023-10-19T14:36:16.838Z,3.71
2023-10-19T14:38:48.443Z,3.94
2023-10-19T14:41:17.500Z,3.82
2023-10-19T14:43:45.700Z,3.88
2023-10-19T14:46:15.716Z,3.96
2023-10-19T14:48:44.407Z,4.09
2023-10-19T14:51:14.215Z,4.17
2023-10-19T14:53:43.001Z,4.77
2023-10-19T14:56:11.714Z,4.94
2023-10-19T14:58:40.343Z,5.12
2023-10-19T15:01:12.832Z,5.11
2023-10-19T15:03:41.667Z,5.38
2023-10-19T15:06:09.873Z,5.39
2023-10-19T15:08:38.566Z,5.67
2023-10-19T15:11:07.260Z,5.71
2023-10-19T15:13:36.472Z,5.64
2023-10-19T15:16:11.922Z,5.97
2023-10-19T15:18:41.698Z,5.95
2023-10-19T15:21:16.507Z,5.81
2023-10-19T15:23:45.069Z,5.90
2023-10-19T15:26:20.908Z,6.35
2023-10-19T15:28:49.948Z,6.33
2023-10-19T15:31:18.780Z,6.15
2023-10-19T15:33:48.179Z,6.19
2023-10-19T15:36:16.718Z,6.31
2023-10-19T15:38:45.447Z,6.39
2023-10-19T15:41:14.880Z,6.48
2023-10-19T15:43:43.203Z,6.58
2023-10-19T15:46:15.415Z,6.89
2023-10-19T15:48:44.079Z,7.06
2023-10-19T15:51:12.811Z,7.28
2023-10-19T15:53:42.563Z,7.37
2023-10-19T15:56:11.182Z,7.74
2023-10-19T15:58:39.800Z,7.78
2023-10-19T16:01:09.666Z,8.01
2023-10-19T16:03:39.556Z,8.05
2023-10-19T16:06:08.351Z,8.06
2023-10-19T16:08:38.568Z,8.25
2023-10-19T16:11:07.015Z,8.25
2023-10-19T16:13:36.064Z,8.59
2023-10-19T16:16:05.582Z,8.81
2023-10-19T16:18:34.061Z,8.90
2023-10-19T16:21:06.683Z,8.95
2023-10-19T16:23:35.988Z,9.02
2023-10-19T16:26:04.993Z,9.07
2023-10-19T16:28:34.502Z,9.42
2023-10-19T16:31:06.869Z,9.72
2023-10-19T16:33:35.909Z,9.84
2023-10-19T16:36:04.846Z,10.02
2023-10-19T16:38:33.487Z,10.25
2023-10-19T16:41:03.767Z,10.64
2023-10-19T16:43:32.473Z,10.79
2023-10-19T16:46:02.446Z,10.82
2023-10-19T16:48:30.690Z,11.17
2023-10-19T16:51:05.980Z,11.25
2023-10-19T16:53:35.085Z,11.48
2023-10-19T16:56:05.780Z,11.52
2023-10-19T16:58:34.565Z,11.60
2023-10-19T17:01:08.255Z,11.65
2023-10-19T17:03:38.183Z,11.77
2023-10-19T17:06:06.889Z,11.49
2023-10-19T17:08:36.299Z,11.82
2023-10-19T17:11:05.023Z,12.04
2023-10-19T17:13:34.907Z,12.38
2023-10-19T17:16:03.686Z,12.47
2023-10-19T17:18:32.408Z,12.64
2023-10-19T17:21:02.932Z,12.66
2023-10-19T17:23:32.099Z,12.79
2023-10-19T17:26:00.821Z,13.12
2023-10-19T17:28:29.472Z,13.11
2023-10-19T17:30:57.925Z,13.50
2023-10-19T17:33:27.450Z,13.78
2023-10-19T17:35:56.272Z,13.85
2023-10-19T17:38:24.905Z,13.97
2023-10-19T17:40:53.659Z,14.07
2023-10-19T17:43:22.316Z,14.13
2023-10-19T17:45:50.934Z,14.48
2023-10-19T17:48:19.874Z,15.05
2023-10-19T17:50:48.494Z,14.86
2023-10-19T17:53:19.476Z,15.07
2023-10-19T17:55:48.264Z,15.56
2023-10-19T17:58:16.669Z,15.64
2023-10-19T18:00:45.348Z,15.74
2023-10-19T18:03:14.514Z,15.89
2023-10-19T18:05:51.611Z,16.12
2023-10-19T18:08:20.334Z,15.98
2023-10-19T18:10:49.334Z,16.51
2023-10-19T18:13:18.743Z,16.72
2023-10-19T18:15:47.312Z,17.15
2023-10-19T18:18:15.945Z,17.26
2023-10-19T18:20:45.153Z,17.47
2023-10-19T18:23:13.804Z,16.54
2023-10-19T18:25:44.530Z,16.48
2023-10-19T18:28:13.431Z,16.85
2023-10-19T18:30:43.437Z,17.66
2023-10-19T18:33:14.215Z,17.27
2023-10-19T18:35:44.520Z,17.64
2023-10-19T18:38:13.178Z,18.36
2023-10-19T18:40:43.196Z,18.07
2023-10-19T18:43:11.787Z,18.14
2023-10-19T18:45:40.459Z,18.31
2023-10-19T18:48:09.877Z,18.44
2023-10-19T18:50:38.560Z,18.87
2023-10-19T18:53:07.411Z,18.37
2023-10-19T18:55:37.575Z,18.21
2023-10-19T18:58:07.769Z,18.31
2023-10-19T19:00:36.398Z,18.59
2023-10-19T19:03:05.636Z,18.52
2023-10-19T19:05:36.493Z,18.60
2023-10-19T19:08:04.852Z,19.15
2023-10-19T19:10:36.353Z,18.70
2023-10-19T19:13:05.882Z,19.10
2023-10-19T19:15:34.525Z,19.04
2023-10-19T19:18:03.834Z,19.12
2023-10-19T19:20:32.586Z,19.26
2023-10-19T19:23:01.273Z,19.10
2023-10-19T19:25:29.932Z,19.34
2023-10-19T19:27:58.512Z,19.54
2023-10-19T19:30:28.075Z,19.43
2023-10-19T19:32:56.933Z,19.31
2023-10-19T19:35:26.187Z,19.66
2023-10-19T19:37:54.927Z,19.36
2023-10-19T19:40:25.261Z,19.39
2023-10-19T19:42:59.587Z,19.35
2023-10-19T19:45:28.763Z,19.30
2023-10-19T19:47:58.488Z,19.58
2023-10-19T19:50:27.198Z,19.81
2023-10-19T19:52:56.851Z,19.83
2023-10-19T19:55:25.595Z,19.93
2023-10-19T19:57:54.200Z,19.88
2023-10-19T20:00:24.424Z,19.83
2023-10-19T20:02:53.208Z,19.65
2023-10-19T20:05:23.161Z,19.69
2023-10-19T20:07:51.767Z,19.54
2023-10-19T20:10:20.357Z,19.68
2023-10-19T20:12:49.071Z,19.57
2023-10-19T20:15:17.736Z,19.75
2023-10-19T20:17:46.572Z,19.94
2023-10-19T20:20:15.418Z,20.09
2023-10-19T20:22:44.636Z,20.06
2023-10-19T20:25:16.516Z,19.94
2023-10-19T20:27:46.483Z,20.12
2023-10-19T20:30:15.604Z,20.18
2023-10-19T20:32:48.107Z,20.19
2023-10-19T20:35:23.173Z,20.02
2023-10-19T20:37:54.067Z,20.11
2023-10-19T20:40:25.152Z,20.15
2023-10-19T20:42:59.865Z,20.07
2023-10-19T20:45:28.233Z,20.05
2023-10-19T20:48:00.688Z,19.86
2023-10-19T20:50:32.575Z,19.72
2023-10-19T20:53:02.063Z,19.76
2023-10-19T20:55:30.843Z,19.68
2023-10-19T20:58:00.406Z,19.78
2023-10-19T21:00:29.094Z,19.79
2023-10-19T21:02:58.257Z,19.64
2023-10-19T21:05:27.447Z,19.67
2023-10-19T21:07:56.078Z,19.51
2023-10-19T21:10:24.278Z,19.54
2023-10-19T21:12:53.022Z,19.65
2023-10-19T21:15:21.660Z,19.72
2023-10-19T21:17:52.740Z,19.85
2023-10-19T21:20:22.281Z,19.91
2023-10-19T21:22:52.235Z,20.27
2023-10-19T21:25:24.857Z,20.26
2023-10-19T21:27:55.157Z,20.30
2023-10-19T21:30:23.564Z,20.32
2023-10-19T21:32:52.279Z,20.29
2023-10-19T21:35:22.819Z,20.33
2023-10-19T21:37:51.621Z,20.18
2023-10-19T21:40:20.281Z,20.11
2023-10-19T21:42:48.903Z,20.06
2023-10-19T21:45:17.304Z,20.05
2023-10-19T21:47:47.282Z,20.07
2023-10-19T21:50:16.224Z,19.90
2023-10-19T21:52:44.942Z,19.91
2023-10-19T21:55:13.694Z,19.70
2023-10-19T21:57:43.910Z,19.76
2023-10-19T22:00:20.648Z,19.72
2023-10-19T22:03:00.745Z,19.62
2023-10-19T22:05:38.038Z,19.31
2023-10-19T22:08:07.030Z,19.41
2023-10-19T22:10:36.537Z,19.35
2023-10-19T22:13:05.242Z,19.32
2023-10-19T22:15:33.825Z,19.45
2023-10-19T22:18:02.450Z,19.31
2023-10-19T22:20:32.644Z,19.24
2023-10-19T22:23:00.913Z,19.14
2023-10-19T22:25:31.234Z,19.22
2023-10-19T22:27:59.617Z,19.11
2023-10-19T22:30:28.179Z,19.20
2023-10-19T22:32:56.945Z,19.22
2023-10-19T22:35:25.634Z,19.24
2023-10-19T22:37:54.240Z,19.07
2023-10-19T22:40:22.893Z,18.95
2023-10-19T22:42:51.463Z,18.74
2023-10-19T22:45:20.913Z,18.45
2023-10-19T22:47:49.679Z,18.29
2023-10-19T22:50:18.807Z,18.45
2023-10-19T22:52:48.184Z,18.22
2023-10-19T22:55:19.184Z,18.14
2023-10-19T22:57:53.531Z,18.00
2023-10-19T23:00:21.979Z,17.79
2023-10-19T23:02:51.031Z,17.73
2023-10-19T23:05:19.847Z,17.92
2023-10-19T23:07:51.594Z,18.04
2023-10-19T23:10:22.078Z,17.95
2023-10-19T23:12:53.365Z,17.93
2023-10-19T23:15:33.578Z,18.01
2023-10-19T23:18:03.291Z,17.94
2023-10-19T23:20:36.201Z,17.87
2023-10-19T23:23:08.268Z,17.80
2023-10-19T23:25:40.612Z,17.54
2023-10-19T23:28:14.524Z,17.38
2023-10-19T23:30:45.027Z,17.36
2023-10-19T23:33:14.395Z,17.03
2023-10-19T23:35:43.090Z,17.19
2023-10-19T23:38:11.745Z,17.00
2023-10-19T23:40:40.731Z,17.04
2023-10-19T23:43:09.505Z,16.90
2023-10-19T23:45:43.982Z,17.02
2023-10-19T23:48:16.738Z,16.85
2023-10-19T23:50:45.366Z,16.78
2023-10-19T23:53:13.630Z,16.67
2023-10-19T23:55:43.008Z,16.40
2023-10-19T23:58:11.670Z,16.58
